• Join FlightAware (Why Join?)
  • Login
  • US Flag 
01:46AM EDT


 

Airport Tracker/Info


-or-


 

Live Flight TrackerFlight Track Log ✈ EJA941 ✈ 18-Jun-2013 ✈ KBOS - KINT

Flight Track Log - Related Links

Times and Time Zones

All times are in EDT time to prevent confusion due to time zone crossing. See the EJA941 flight status page for this flight to view local times or setup timezone preferences in your user account.

Time Position Orientation Groundspeed Altitude Reporting Facility
EDT Latitude Longitude Course Direction KTS MPH feet Rate Location/Type
08:36PM 42.3667 -70.9667 90° East 180 207 900  Level KA90
08:37PM 42.3667 -70.9333 90° East 199 229 3,100 2,520 Climbing KA90
08:38PM 42.3833 -70.8500 75° East 274 315 5,000 2,520 Climbing KA90
08:39PM 42.3333 -70.7833 135° Southeast 269 310 8,200 3,000 Climbing KA90
08:39PM 42.2922 -70.7672 164° South 276 318 9,600 1,920 Climbing Boston Center
08:40PM 42.2408 -70.8192 217° Southwest 245 282 11,200 1,680 Climbing Boston Center
08:41PM 42.2156 -70.9458 255° West 268 308 13,000 2,400 Climbing Boston Center
08:42PM 42.1961 -71.0586 257° West 326 375 16,100 2,820 Climbing Boston Center
08:44PM 42.1767 -71.1906 259° West 321 369 19,300 2,220 Climbing Boston Center
08:45PM 42.1572 -71.3228 259° West 310 357 21,100 1,500 Climbing Boston Center
08:46PM 42.1397 -71.4406 259° West 310 357 22,300 1,200 Climbing Boston Center
08:47PM 42.1136 -71.5614 254° West 324 373 23,600 1,200 Climbing Boston Center
08:48PM 42.0956 -71.6819 259° West 329 379 24,700 1,020 Climbing Boston Center
08:49PM 42.0736 -71.8108 257° West 347 399 25,700 960 Climbing Boston Center
08:50PM 42.0556 -71.9453 260° West 359 413 26,700 960 Climbing Boston Center
08:51PM 42.0308 -72.0767 256° West 365 420 27,700 960 Climbing Boston Center
08:52PM 41.9769 -72.1917 238° Southwest 365 420 28,700 780 Climbing Boston Center
08:53PM 41.9333 -72.2839 238° Southwest 365 420 29,300 900 Climbing Boston Center
08:54PM 41.8628 -72.4206 235° Southwest 376 433 30,500 1,080 Climbing Boston Center
08:55PM 41.8064 -72.5403 238° Southwest 381 438 31,500 960 Climbing Boston Center
08:56PM 41.7458 -72.6600 236° Southwest 381 438 32,500 900 Climbing Boston Center
08:57PM 41.6914 -72.7681 236° Southwest 388 447 33,300 1,140 Climbing Boston Center
08:58PM 41.6306 -72.8928 237° Southwest 400 460 34,800 1,440 Climbing Boston Center
08:59PM 41.5653 -73.0228 236° Southwest 405 466 36,200 1,500 Climbing Boston Center
09:01PM 41.4458 -73.2594 236° Southwest 405 466 39,300 1,260 Climbing New York Center
09:02PM 41.3847 -73.3869 237° Southwest 410 472 40,000 300 Climbing New York Center
09:03PM 41.3194 -73.5117 235° Southwest 410 472 40,000  Level New York Center
09:04PM 41.2517 -73.6383 235° Southwest 415 478 40,000  Level New York Center
09:05PM 41.1758 -73.7592 230° Southwest 422 486 40,000  Level New York Center
09:06PM 41.0978 -73.8797 229° Southwest 433 498 40,000  Level New York Center
09:07PM 41.0239 -73.9972 230° Southwest 433 498 40,000  Level New York Center
09:08PM 40.9497 -74.1119 229° Southwest 428 493 40,000  Level New York Center
09:09PM 40.8650 -74.2339 227° Southwest 423 487 40,000  Level New York Center
09:10PM 40.7906 -74.3533 231° Southwest 423 487 40,000  Level New York Center
09:11PM 40.7119 -74.4697 228° Southwest 428 493 40,000  Level New York Center
09:12PM 40.6353 -74.5914 230° Southwest 433 498 40,000  Level New York Center
09:13PM 40.5561 -74.7125 229° Southwest 439 505 40,000  Level New York Center
09:14PM 40.4772 -74.8308 229° Southwest 439 505 40,000  Level New York Center
09:15PM 40.3978 -74.9542 230° Southwest 444 511 40,000  Level New York Center
09:16PM 40.3186 -75.0747 229° Southwest 444 511 40,000  Level New York Center
09:17PM 40.2411 -75.1950 230° Southwest 444 511 40,000  Level New York Center
09:18PM 40.1681 -75.3072 230° Southwest 444 511 40,000  Level New York Center
09:19PM 40.0864 -75.4239 228° Southwest 444 511 40,000  Level New York Center
09:20PM 40.0064 -75.5458 229° Southwest 444 511 40,000  Level New York Center
09:21PM 39.9286 -75.6653 230° Southwest 439 505 40,000  Level New York Center
09:22PM 39.8506 -75.7842 229° Southwest 439 505 40,000  Level New York Center
09:23PM 39.7722 -75.9108 231° Southwest 445 512 40,000  Level New York Center
09:24PM 39.6961 -76.0294 230° Southwest 450 518 40,000  Level New York Center
09:25PM 39.6019 -76.1706 229° Southwest 430 495 40,000  Level Washington Center
09:26PM 39.5303 -76.2939 233° Southwest 430 495 40,000  Level Washington Center
09:27PM 39.4836 -76.4358 247° West 425 489 40,000  Level Washington Center
09:28PM 39.4367 -76.5803 247° West 430 495 40,000  Level Washington Center
09:29PM 39.3894 -76.7222 247° West 435 501 40,000 -660 Level Washington Center
09:30PM 39.3050 -76.8361 226° Southwest 435 501 38,700 -1,440 Descending Washington Center
09:31PM 39.2122 -76.9444 222° Southwest 441 507 37,200 -1,500 Descending Washington Center
09:32PM 39.1194 -77.0444 220° Southwest 441 507 35,700 -1,320 Descending Washington Center
09:33PM 39.0283 -77.1494 222° Southwest 446 513 34,600 -1,260 Descending Washington Center
09:34PM 38.9353 -77.2514 220° Southwest 446 513 33,300 -1,320 Descending Washington Center
09:35PM 38.8358 -77.3611 221° Southwest 454 522 32,000 -1,560 Descending Washington Center
09:36PM 38.7275 -77.4836 221° Southwest 471 542 30,200 -1,020 Descending Washington Center
09:37PM 38.6256 -77.5953 221° Southwest 482 555 30,000 -120 Descending Washington Center
09:38PM 38.5236 -77.7067 221° Southwest 487 560 30,000  Level Washington Center
09:39PM 38.4236 -77.8178 221° Southwest 487 560 30,000  Level Washington Center
09:40PM 38.3258 -77.9233 220° Southwest 487 560 30,000  Level Washington Center
09:41PM 38.2400 -78.0478 229° Southwest 477 549 30,000  Level Washington Center
09:42PM 38.1600 -78.1797 232° Southwest 477 549 30,000  Level Washington Center
09:43PM 38.0819 -78.3117 233° Southwest 477 549 30,000  Level Washington Center
09:44PM 38.0169 -78.4200 233° Southwest 477 549 30,000  Level Washington Center
09:45PM 37.9033 -78.5472 221° Southwest 464 534 30,000  Level Washington Center
09:46PM 37.7964 -78.6483 217° Southwest 473 544 30,000 -360 Level Washington Center
09:47PM 37.6917 -78.7517 218° Southwest 479 551 29,300 -960 Descending Washington Center
09:48PM 37.5844 -78.8544 217° Southwest 485 558 28,100 -720 Descending Washington Center
09:49PM 37.4903 -78.9447 217° Southwest 485 558 27,900 -720 Descending Washington Center
09:50PM 37.3872 -79.0447 218° Southwest 480 552 26,700 -1,380 Descending Washington Center
09:51PM 37.2800 -79.1444 217° Southwest 480 552 25,200 -1,200 Descending Washington Center
09:52PM 37.1750 -79.2436 217° Southwest 480 552 24,400 -1,320 Descending Washington Center
09:53PM 37.0717 -79.3431 218° Southwest 480 552 22,700 -1,860 Descending Washington Center
09:54PM 36.9747 -79.4369 218° Southwest 470 541 20,700 -2,880 Descending Washington Center
09:55PM 36.8694 -79.5356 217° Southwest 446 513 17,000 -3,480 Descending Washington Center
09:56PM 36.7789 -79.6219 217° Southwest 434 499 13,800 -3,180 Descending Washington Center
09:58PM 36.6185 -79.7481 219° Southwest  Level FlightAware Approximate
10:05PM 36.1333 -80.2167 219° Southwest  Level FlightAware Approximate
10:06PM 36.1337 -80.2220 219° Southwest  Level Estimated
10:07PM 36.1333 -80.2167 219° Southwest  Level FlightAware Approximate
10:08PM 36.1337 -80.2220 219° Southwest  Level Estimated
10:09PM 36.1333 -80.2167 219° Southwest  Level FlightAware Approximate
10:10PM 36.1337 -80.2220 219° Southwest  Level Estimated
10:11PM 36.1333 -80.2167 219° Southwest  Level FlightAware Approximate